Home   Weather   USA   Southfield   Past weeks
Flag for USA

Past Weather in Southfield, Michigan, USA — Yesterday and Last 2 Weeks

Currently: 70 °F. Sunny. (Weather station: Troy, Oakland/Troy Airport, USA). See more current weather

Past Weather in Southfield — Graph

°F

Southfield Temperature Yesterday

Maximum temperature yesterday: 74 °F (at 5:15 pm)
Minimum temperature yesterday: 48 °F (at 5:35 am)
Average temperature yesterday: 61 °F

High & Low Weather Summary for the Past Weeks

 TemperatureHumidityPressure
High87 °F (Jun 4, 2:55 pm)94% (Jun 3, 6:35 am)30.34 "Hg (Jun 3, 6:35 am)
Low47 °F (May 30, 6:15 am)20% (May 30, 2:35 pm)29.57 "Hg (Jun 6, 5:15 am)
Average66 °F58%29.93 "Hg
* Reported May 28 9:35 am — Jun 12 9:15 am, Southfield. Weather by CustomWeather, © 2024

Note: Actual official high and low records may vary slightly from our data, if they occured in-between our weather recording intervals... More about our weather records

Southfield Weather History for the Previous 24 Hours

Scroll right to see more
 ConditionsComfort  
Time TempWeatherWind HumidityBarometerVisibility
9:15 am
Wed, Jun 12
68 °FSunny.6 mph48%30.01 "Hg10 mi
8:55 am67 °FScattered clouds.7 mph53%30.01 "Hg10 mi
8:35 am66 °FOvercast.6 mph54%30.01 "Hg10 mi
8:15 am65 °FOvercast.3 mph56%30.01 "Hg10 mi
7:15 am63 °FScattered clouds.3 mph63%30.02 "Hg10 mi
6:55 am62 °FMostly cloudy.No wind65%30.02 "Hg10 mi
6:35 am62 °FOvercast.No wind64%30.02 "Hg10 mi
6:15 am62 °FOvercast.No wind64%30.01 "Hg10 mi
5:55 am62 °FOvercast.No wind62%30.01 "Hg10 mi
5:35 am62 °FOvercast.No wind62%30.00 "Hg10 mi
5:15 am62 °FOvercast.No wind61%30.00 "Hg10 mi
4:55 am62 °FOvercast.No wind60%30.00 "Hg10 mi
4:15 am61 °FMostly cloudy.No wind60%30.00 "Hg10 mi
3:35 am62 °FOvercast.No wind56%30.00 "Hg10 mi
3:15 am62 °FOvercast.No wind55%30.00 "Hg10 mi
2:55 am62 °FOvercast.No wind54%30.00 "Hg10 mi
2:35 am62 °FOvercast.No wind54%30.01 "Hg10 mi
2:15 am61 °FPassing clouds.No wind54%30.01 "Hg10 mi
1:55 am61 °FPassing clouds.No wind54%30.01 "Hg10 mi
1:35 am60 °FClear.No wind55%30.01 "Hg10 mi
12:55 am62 °FClear.No wind51%30.02 "Hg10 mi
12:15 am64 °FClear.No wind48%30.02 "Hg10 mi
11:55 pm
Tue, Jun 11
64 °FClear.7 mph47%30.02 "Hg10 mi
11:35 pm64 °FClear.3 mph47%30.02 "Hg10 mi
11:15 pm64 °FClear.3 mph46%30.02 "Hg10 mi
10:55 pm64 °FClear.5 mph46%30.02 "Hg10 mi
10:15 pm65 °FClear.5 mph45%30.00 "Hg10 mi
9:55 pm66 °FClear.9 mph44%30.00 "Hg10 mi
9:15 pm67 °FClear.7 mph43%30.00 "Hg10 mi
8:55 pm68 °FSunny.7 mph43%29.99 "Hg10 mi
8:35 pm69 °FSunny.6 mph42%29.99 "Hg10 mi
7:55 pm70 °FSunny.9 mph36%29.98 "Hg10 mi
7:35 pm71 °FScattered clouds.3 mph34%29.98 "Hg10 mi
7:15 pm72 °FSunny.3 mph29%29.98 "Hg10 mi
6:35 pm74 °FSunny.8 mph27%29.98 "Hg10 mi
5:55 pm73 °FSunny.No wind26%29.98 "Hg10 mi
5:35 pm74 °FSunny.3 mph24%29.98 "Hg10 mi
5:15 pm74 °FSunny.No wind25%29.98 "Hg10 mi
4:35 pm72 °FSunny.No wind26%29.99 "Hg10 mi
4:15 pm73 °FSunny.6 mph27%30.00 "Hg10 mi
3:35 pm72 °FSunny.6 mph27%30.01 "Hg10 mi
3:15 pm72 °FSunny.No wind27%30.01 "Hg10 mi
2:55 pm72 °FSunny.7 mph28%30.02 "Hg10 mi
2:35 pm72 °FSunny.5 mph26%30.02 "Hg10 mi
2:15 pm70 °FSunny.No wind28%30.02 "Hg10 mi
1:55 pm70 °FSunny.5 mph29%30.02 "Hg10 mi
1:35 pm69 °FSunny.No wind29%30.03 "Hg10 mi
12:55 pm68 °FSunny.No wind33%30.03 "Hg10 mi
12:35 pm68 °FSunny.No wind33%30.03 "Hg10 mi
11:55 am66 °FSunny.No wind33%30.04 "Hg10 mi
11:35 am66 °FSunny.3 mph33%30.05 "Hg10 mi
11:15 am65 °FSunny.3 mph31%30.05 "Hg10 mi
10:55 am64 °FSunny.No wind35%30.05 "Hg10 mi
10:35 am64 °FSunny.No wind36%30.05 "Hg10 mi
Weather by CustomWeather, © 2024

See weather overview